| time (UTC) | temp F | wind direction | speed knots | gust knots | rain 1hr in | rain 24hr in | rain mn in | humidity % | barometer mb |
| 20260508024157 | 67 | 297 | 2.6 | 4.3 | 0.00 | 0.00 | 0.00 | 59 | 1016.0 |
| 20260508023656 | 67 | 296 | 2.6 | 5.2 | 0.00 | 0.00 | 0.00 | 58 | 1016.0 |
| 20260508023156 | 67 | 288 | 3.5 | 5.2 | 0.00 | 0.00 | 0.00 | 57 | 1016.0 |
| 20260508022659 | 68 | 311 | 1.7 | 3.5 | 0.00 | 0.00 | 0.00 | 57 | 1016.0 |
| 20260508022156 | 69 | 321 | 1.7 | 2.6 | 0.00 | 0.00 | 0.00 | 56 | 1016.0 |
| 20260508021656 | 69 | 310 | 1.7 | 4.3 | 0.00 | 0.00 | 0.00 | 55 | 1016.0 |
| 20260508021156 | 70 | 283 | 1.7 | 4.3 | 0.00 | 0.00 | 0.00 | 54 | 1016.0 |
| 20260508020656 | 70 | 301 | 0.9 | 2.6 | 0.00 | 0.00 | 0.00 | 53 | 1016.0 |
| 20260508020156 | 71 | 321 | 1.7 | 3.5 | 0.00 | 0.00 | 0.00 | 53 | 1016.0 |
| 20260508015656 | 71 | 316 | 1.7 | 3.5 | 0.00 | 0.00 | 0.00 | 53 | 1016.0 |
| 20260508015156 | 71 | 314 | 1.7 | 3.5 | 0.00 | 0.00 | 0.00 | 52 | 1016.0 |
| 20260508014656 | 71 | 300 | 2.6 | 4.3 | 0.00 | 0.00 | 0.00 | 52 | 1016.0 |
| 20260508014156 | 71 | 329 | 2.6 | 5.2 | 0.00 | 0.00 | 0.00 | 52 | 1016.0 |
| 20260508013658 | 71 | 310 | 2.6 | 4.3 | 0.00 | 0.00 | 0.00 | 51 | 1016.0 |
| 20260508013157 | 72 | 327 | 3.5 | 5.2 | 0.00 | 0.00 | 0.00 | 51 | 1016.0 |
| 20260508012656 | 72 | 250 | 0.9 | 2.6 | 0.00 | 0.00 | 0.00 | 56 | 1016.0 |
| 20260508012157 | 72 | 224 | 0.0 | 1.7 | 0.00 | 0.00 | 0.00 | 55 | 1016.0 |
| 20260508011656 | 72 | 183 | 0.0 | 0.9 | 0.00 | 0.00 | 0.00 | 55 | 1016.0 |
| 20260508011156 | 72 | 42 | 0.9 | 1.7 | 0.00 | 0.00 | 0.00 | 55 | 1016.0 |
| 20260508010656 | 72 | 212 | 0.9 | 1.7 | 0.00 | 0.00 | 0.00 | 55 | 1016.0 |
| 20260508010158 | 72 | 90 | 0.9 | 1.7 | 0.00 | 0.00 | 0.00 | 53 | 1016.0 |
| 20260508005656 | 72 | 7 | 0.9 | 2.6 | 0.00 | 0.00 | 0.00 | 54 | 1016.0 |
| 20260508005158 | 72 | 128 | 1.7 | 4.3 | 0.00 | 0.00 | 0.00 | 53 | 1016.0 |
| 20260508004656 | 72 | 20 | 1.7 | 3.5 | 0.00 | 0.00 | 0.00 | 53 | 1016.0 |
| 20260508004156 | 72 | 53 | 3.5 | 5.2 | 0.00 | 0.00 | 0.00 | 52 | 1016.0 |
| 20260508003656 | 72 | 56 | 1.7 | 4.3 | 0.00 | 0.00 | 0.00 | 53 | 1016.0 |
| 20260508003156 | 72 | 46 | 1.7 | 3.5 | 0.00 | 0.00 | 0.00 | 53 | 1016.0 |
| 20260508002656 | 73 | 26 | 2.6 | 5.2 | 0.00 | 0.00 | 0.00 | 52 | 1016.0 |
| 20260508002156 | 72 | 53 | 1.7 | 3.5 | 0.00 | 0.00 | 0.00 | 53 | 1016.0 |
| 20260508001657 | 72 | 49 | 1.7 | 3.5 | 0.00 | 0.00 | 0.00 | 53 | 1016.0 |
| 20260508001156 | 72 | 44 | 1.7 | 3.5 | 0.00 | 0.00 | 0.00 | 53 | 1016.0 |
| 20260508000656 | 72 | 176 | 1.7 | 4.3 | 0.00 | 0.00 | 0.00 | 54 | 1016.0 |
| 20260508000156 | 72 | 30 | 4.3 | 6.1 | 0.00 | 0.00 | 0.00 | 52 | 1016.0 |
| 20260507235657 | 72 | 65 | 3.5 | 5.2 | 0.00 | 0.00 | 0.00 | 50 | 1016.0 |
| 20260507235156 | 73 | 192 | 1.7 | 2.6 | 0.00 | 0.00 | 0.00 | 51 | 1016.0 |
| 20260507234656 | 73 | 188 | 3.5 | 6.1 | 0.00 | 0.00 | 0.00 | 50 | 1016.0 |
| 20260507234156 | 73 | 17 | 0.9 | 3.5 | 0.00 | 0.00 | 0.00 | 50 | 1017.0 |
| 20260507233656 | 73 | 185 | 3.5 | 6.1 | 0.00 | 0.00 | 0.00 | 50 | 1017.0 |
| 20260507233156 | 73 | 46 | 1.7 | 3.5 | 0.00 | 0.00 | 0.00 | 49 | 1017.0 |
| 20260507232656 | 74 | 35 | 2.6 | 4.3 | 0.00 | 0.00 | 0.00 | 48 | 1017.0 |
| 20260507232156 | 73 | 355 | 0.9 | 2.6 | 0.00 | 0.00 | 0.00 | 49 | 1017.0 |
| 20260507231656 | 73 | 60 | 0.0 | 1.7 | 0.00 | 0.00 | 0.00 | 50 | 1017.0 |
| 20260507231156 | 73 | 49 | 2.6 | 3.5 | 0.00 | 0.00 | 0.00 | 50 | 1017.0 |
| 20260507230656 | 73 | 27 | 2.6 | 4.3 | 0.00 | 0.00 | 0.00 | 49 | 1017.0 |
| 20260507230157 | 73 | 193 | 2.6 | 3.5 | 0.00 | 0.00 | 0.00 | 49 | 1017.0 |
| 20260507225656 | 73 | 52 | 1.7 | 3.5 | 0.00 | 0.00 | 0.00 | 49 | 1017.0 |
| 20260507225156 | 73 | 50 | 1.7 | 5.2 | 0.00 | 0.00 | 0.00 | 49 | 1017.0 |
| 20260507224657 | 72 | 35 | 1.7 | 2.6 | 0.00 | 0.00 | 0.00 | 49 | 1017.0 |
| 20260507224157 | 71 | 23 | 2.6 | 3.5 | 0.00 | 0.00 | 0.00 | 50 | 1017.0 |
| 20260507223656 | 71 | 8 | 2.6 | 3.5 | 0.00 | 0.00 | 0.00 | 50 | 1017.0 |
| 20260507223157 | 72 | 60 | 1.7 | 3.5 | 0.00 | 0.00 | 0.00 | 50 | 1018.0 |
| 20260507222656 | 71 | 32 | 2.6 | 4.3 | 0.00 | 0.00 | 0.00 | 50 | 1018.0 |
| 20260507222156 | 71 | 46 | 1.7 | 3.5 | 0.00 | 0.00 | 0.00 | 51 | 1018.0 |
| 20260507221656 | 71 | 62 | 1.7 | 3.5 | 0.00 | 0.00 | 0.00 | 51 | 1018.0 |
| 20260507221158 | 71 | 191 | 0.9 | 2.6 | 0.00 | 0.00 | 0.00 | 52 | 1018.0 |
| 20260507220657 | 70 | 163 | 1.7 | 2.6 | 0.00 | 0.00 | 0.00 | 51 | 1018.0 |
| 20260507220156 | 70 | 35 | 1.7 | 2.6 | 0.00 | 0.00 | 0.00 | 52 | 1018.0 |
| 20260507215656 | 70 | 8 | 1.7 | 3.5 | 0.00 | 0.00 | 0.00 | 52 | 1018.0 |
| 20260507215156 | 69 | 139 | 0.9 | 1.7 | 0.00 | 0.00 | 0.00 | 54 | 1018.0 |
| 20260507214656 | 69 | 228 | 1.7 | 2.6 | 0.00 | 0.00 | 0.00 | 53 | 1018.0 |
| 20260507214157 | 69 | 158 | 1.7 | 3.5 | 0.00 | 0.00 | 0.00 | 54 | 1018.0 |
| 20260507213656 | 69 | 227 | 1.7 | 2.6 | 0.00 | 0.00 | 0.00 | 55 | 1018.0 |
| 20260507213156 | 70 | 195 | 2.6 | 5.2 | 0.00 | 0.00 | 0.00 | 55 | 1018.0 |
| 20260507212657 | 70 | 90 | 1.7 | 4.3 | 0.00 | 0.00 | 0.00 | 54 | 1018.0 |
| 20260507212156 | 70 | 319 | 0.9 | 4.3 | 0.00 | 0.00 | 0.00 | 54 | 1018.0 |
| 20260507211656 | 69 | 354 | 1.7 | 3.5 | 0.00 | 0.00 | 0.00 | 54 | 1018.0 |
| 20260507211157 | 69 | 206 | 1.7 | 4.3 | 0.00 | 0.00 | 0.00 | 55 | 1018.0 |
| 20260507210657 | 68 | 37 | 1.7 | 4.3 | 0.00 | 0.00 | 0.00 | 56 | 1019.0 |
| 20260507210156 | 68 | 30 | 3.5 | 4.3 | 0.00 | 0.00 | 0.00 | 57 | 1019.0 |
| 20260507205657 | 67 | 324 | 1.7 | 3.5 | 0.00 | 0.00 | 0.00 | 58 | 1019.0 |
| 20260507205156 | 67 | 37 | 1.7 | 3.5 | 0.00 | 0.00 | 0.00 | 58 | 1019.0 |
| 20260507204656 | 68 | 342 | 1.7 | 3.5 | 0.00 | 0.00 | 0.00 | 58 | 1019.0 |
| 20260507204202 | 67 | 20 | 2.6 | 3.5 | 0.00 | 0.00 | 0.00 | 57 | 1019.0 |
| 20260507203656 | 66 | 250 | 0.9 | 2.6 | 0.00 | 0.00 | 0.00 | 58 | 1019.0 |
| 20260507203157 | 66 | 354 | 3.5 | 5.2 | 0.00 | 0.00 | 0.00 | 58 | 1019.0 |
| 20260507202657 | 65 | 8 | 4.3 | 6.1 | 0.00 | 0.00 | 0.00 | 60 | 1019.0 |
| 20260507202157 | 65 | 119 | 0.9 | 3.5 | 0.00 | 0.00 | 0.00 | 61 | 1019.0 |
| 20260507201657 | 65 | 40 | 3.5 | 5.2 | 0.00 | 0.00 | 0.00 | 61 | 1019.0 |
| 20260507200710 | 65 | 61 | 1.7 | 1.7 | 0.00 | 0.00 | 0.00 | 61 | 1019.0 |
| 20260507200156 | 65 | 171 | 5.2 | 7.0 | 0.00 | 0.00 | 0.00 | 61 | 1019.0 |
| 20260507195657 | 65 | 1 | 1.7 | 3.5 | 0.00 | 0.00 | 0.00 | 61 | 1019.0 |
| 20260507195156 | 65 | 154 | 1.7 | 3.5 | 0.00 | 0.00 | 0.00 | 59 | 1019.0 |
| 20260507194656 | 65 | 161 | 1.7 | 3.5 | 0.00 | 0.00 | 0.00 | 60 | 1019.0 |
| 20260507194157 | 64 | 343 | 0.9 | 1.7 | 0.00 | 0.00 | 0.00 | 62 | 1019.0 |
| 20260507193657 | 64 | 13 | 2.6 | 4.3 | 0.00 | 0.00 | 0.00 | 62 | 1019.0 |
| 20260507193157 | 64 | 0 | 3.5 | 6.1 | 0.00 | 0.00 | 0.00 | 62 | 1020.0 |
| 20260507192656 | 64 | 333 | 3.5 | 4.3 | 0.00 | 0.00 | 0.00 | 62 | 1020.0 |
| 20260507192157 | 64 | 9 | 0.9 | 3.5 | 0.00 | 0.00 | 0.00 | 62 | 1020.0 |
| 20260507191656 | 63 | 28 | 4.3 | 7.0 | 0.00 | 0.00 | 0.00 | 62 | 1020.0 |
| 20260507191157 | 63 | 113 | 1.7 | 5.2 | 0.00 | 0.00 | 0.00 | 63 | 1020.0 |
| 20260507190657 | 63 | 35 | 3.5 | 5.2 | 0.00 | 0.00 | 0.00 | 64 | 1020.0 |
| 20260507190156 | 63 | 356 | 5.2 | 8.7 | 0.00 | 0.00 | 0.00 | 63 | 1020.0 |
| 20260507185657 | 63 | 41 | 3.5 | 5.2 | 0.00 | 0.00 | 0.00 | 63 | 1020.0 |
| 20260507185157 | 62 | 234 | 1.7 | 3.5 | 0.00 | 0.00 | 0.00 | 65 | 1020.0 |
| 20260507184656 | 62 | 23 | 6.1 | 7.8 | 0.00 | 0.00 | 0.00 | 65 | 1020.0 |
| 20260507184156 | 62 | 344 | 1.7 | 4.3 | 0.00 | 0.00 | 0.00 | 65 | 1020.0 |
| 20260507183656 | 62 | 7 | 4.3 | 7.0 | 0.00 | 0.00 | 0.00 | 66 | 1020.0 |
| 20260507183156 | 62 | 55 | 3.5 | 7.0 | 0.00 | 0.00 | 0.00 | 65 | 1020.0 |
| 20260507182657 | 61 | 10 | 2.6 | 3.5 | 0.00 | 0.00 | 0.00 | 67 | 1020.0 |
| 20260507182156 | 61 | 338 | 1.7 | 3.5 | 0.00 | 0.00 | 0.00 | 67 | 1020.0 |
| 20260507181657 | 61 | 48 | 3.5 | 5.2 | 0.00 | 0.00 | 0.00 | 67 | 1020.0 |
| 20260507181204 | 61 | 34 | 0.9 | 2.6 | 0.00 | 0.00 | 0.00 | 68 | 1020.0 |
| 20260507180657 | 61 | 19 | 2.6 | 4.3 | 0.00 | 0.00 | 0.00 | 69 | 1020.0 |
| 20260507180156 | 60 | 10 | 4.3 | 7.0 | 0.00 | 0.00 | 0.00 | 68 | 1020.0 |
| 20260507175657 | 60 | 4 | 3.5 | 5.2 | 0.00 | 0.00 | 0.00 | 68 | 1020.0 |
| 20260507175157 | 61 | 345 | 1.7 | 3.5 | 0.00 | 0.00 | 0.00 | 66 | 1020.0 |
| 20260507174657 | 60 | 70 | 1.7 | 3.5 | 0.00 | 0.00 | 0.00 | 71 | 1020.0 |
| 20260507174157 | 60 | 24 | 4.3 | 7.0 | 0.00 | 0.00 | 0.00 | 72 | 1020.0 |
| 20260507173656 | 61 | 35 | 4.3 | 5.2 | 0.00 | 0.00 | 0.00 | 71 | 1020.0 |
| 20260507173156 | 61 | 86 | 1.7 | 2.6 | 0.00 | 0.00 | 0.00 | 70 | 1020.0 |
| 20260507172657 | 60 | 303 | 0.9 | 2.6 | 0.00 | 0.00 | 0.00 | 71 | 1020.0 |
| 20260507172158 | 59 | 22 | 1.7 | 2.6 | 0.00 | 0.00 | 0.00 | 74 | 1020.0 |
| 20260507171656 | 59 | 31 | 2.6 | 4.3 | 0.00 | 0.00 | 0.00 | 74 | 1020.0 |
| 20260507171156 | 58 | 56 | 2.6 | 4.3 | 0.00 | 0.00 | 0.00 | 75 | 1020.0 |
| 20260507170656 | 58 | 345 | 0.9 | 1.7 | 0.00 | 0.00 | 0.00 | 77 | 1020.0 |
| 20260507170157 | 57 | 0 | 2.6 | 3.5 | 0.00 | 0.00 | 0.00 | 78 | 1020.0 |
| 20260507165657 | 57 | 50 | 5.2 | 5.2 | 0.00 | 0.00 | 0.00 | 77 | 1020.0 |
| 20260507165157 | 57 | 26 | 3.5 | 4.3 | 0.00 | 0.00 | 0.00 | 78 | 1020.0 |
| 20260507164656 | 57 | 43 | 2.6 | 3.5 | 0.00 | 0.00 | 0.00 | 79 | 1020.0 |
| 20260507164156 | 57 | 27 | 3.5 | 4.3 | 0.00 | 0.00 | 0.00 | 79 | 1020.0 |
| 20260507163656 | 57 | 50 | 1.7 | 3.5 | 0.00 | 0.00 | 0.00 | 79 | 1020.0 |
| 20260507163156 | 57 | 9 | 1.7 | 1.7 | 0.00 | 0.00 | 0.00 | 79 | 1020.0 |
| 20260507162656 | 57 | 35 | 2.6 | 4.3 | 0.00 | 0.00 | 0.00 | 79 | 1020.0 |
| 20260507162156 | 57 | 31 | 1.7 | 2.6 | 0.00 | 0.00 | 0.00 | 79 | 1020.0 |
| 20260507161657 | 56 | 324 | 0.9 | 1.7 | 0.00 | 0.00 | 0.00 | 80 | 1020.0 |
| 20260507161157 | 56 | 12 | 2.6 | 3.5 | 0.00 | 0.00 | 0.00 | 81 | 1020.0 |
| 20260507160656 | 56 | 34 | 3.5 | 4.3 | 0.00 | 0.00 | 0.00 | 80 | 1020.0 |
| 20260507160157 | 56 | 32 | 1.7 | 2.6 | 0.00 | 0.00 | 0.00 | 80 | 1020.0 |
| 20260507155657 | 56 | 33 | 1.7 | 1.7 | 0.00 | 0.00 | 0.00 | 80 | 1020.0 |
| 20260507155158 | 56 | 38 | 3.5 | 3.5 | 0.00 | 0.00 | 0.00 | 80 | 1020.0 |
| 20260507154656 | 56 | 36 | 1.7 | 2.6 | 0.00 | 0.00 | 0.00 | 82 | 1020.0 |
| 20260507154157 | 56 | 40 | 1.7 | 1.7 | 0.00 | 0.00 | 0.00 | 83 | 1020.0 |
| 20260507153658 | 56 | 8 | 2.6 | 3.5 | 0.00 | 0.00 | 0.00 | 82 | 1020.0 |
| 20260507153157 | 55 | 359 | 1.7 | 1.7 | 0.00 | 0.00 | 0.00 | 83 | 1020.0 |
| 20260507152657 | 55 | 12 | 3.5 | 4.3 | 0.00 | 0.00 | 0.00 | 83 | 1020.0 |
| 20260507152156 | 55 | 6 | 1.7 | 1.7 | 0.00 | 0.00 | 0.00 | 84 | 1020.0 |
| 20260507151656 | 55 | 319 | 1.7 | 1.7 | 0.00 | 0.00 | 0.00 | 85 | 1020.0 |
| 20260507151158 | 55 | 345 | 1.7 | 1.7 | 0.00 | 0.00 | 0.00 | 85 | 1020.0 |
| 20260507150657 | 55 | 344 | 1.7 | 2.6 | 0.00 | 0.00 | 0.00 | 85 | 1021.0 |
| 20260507150158 | 55 | 332 | 1.7 | 3.5 | 0.00 | 0.00 | 0.00 | 85 | 1020.0 |
| 20260507145657 | 55 | 325 | 0.9 | 1.7 | 0.00 | 0.00 | 0.00 | 85 | 1020.0 |
| 20260507145158 | 54 | 336 | 0.9 | 1.7 | 0.00 | 0.00 | 0.00 | 86 | 1020.0 |
| 20260507144702 | 54 | 348 | 0.9 | 1.7 | 0.00 | 0.00 | 0.00 | 87 | 1020.0 |
| 20260507144156 | 54 | 336 | 1.7 | 2.6 | 0.00 | 0.00 | 0.00 | 87 | 1020.0 |
| 20260507143657 | 54 | 346 | 1.7 | 2.6 | 0.00 | 0.00 | 0.00 | 87 | 1020.0 |
| 20260507143157 | 54 | 347 | 0.9 | 1.7 | 0.00 | 0.00 | 0.00 | 88 | 1020.0 |
| 20260507142657 | 54 | 347 | 1.7 | 2.6 | 0.00 | 0.00 | 0.00 | 88 | 1020.0 |
| 20260507142157 | 54 | 339 | 1.7 | 2.6 | 0.00 | 0.00 | 0.00 | 88 | 1020.0 |
| 20260507141657 | 53 | 345 | 1.7 | 2.6 | 0.00 | 0.00 | 0.00 | 88 | 1020.0 |
| 20260507141156 | 53 | 332 | 0.9 | 1.7 | 0.00 | 0.00 | 0.00 | 89 | 1020.0 |
| 20260507140656 | 53 | 339 | 1.7 | 1.7 | 0.00 | 0.00 | 0.00 | 89 | 1020.0 |
| 20260507140157 | 53 | 347 | 0.9 | 1.7 | 0.00 | 0.00 | 0.00 | 89 | 1020.0 |
| 20260507135656 | 53 | 316 | 0.9 | 1.7 | 0.00 | 0.00 | 0.00 | 89 | 1020.0 |
| 20260507135156 | 53 | 340 | 1.7 | 1.7 | 0.00 | 0.00 | 0.00 | 89 | 1020.0 |
| 20260507134659 | 53 | 329 | 1.7 | 2.6 | 0.00 | 0.00 | 0.00 | 89 | 1020.0 |
| 20260507134158 | 53 | 341 | 1.7 | 1.7 | 0.00 | 0.00 | 0.00 | 89 | 1020.0 |
| 20260507133657 | 53 | 345 | 0.9 | 1.7 | 0.00 | 0.00 | 0.00 | 89 | 1020.0 |
| 20260507133156 | 53 | 348 | 0.9 | 1.7 | 0.00 | 0.00 | 0.00 | 88 | 1020.0 |
| 20260507132207 | 53 | 0 | 1.7 | 2.6 | 0.00 | 0.00 | 0.00 | 88 | 1020.0 |
| 20260507131656 | 53 | 3 | 1.7 | 2.6 | 0.00 | 0.00 | 0.00 | 88 | 1020.0 |
| 20260507131157 | 53 | 16 | 1.7 | 2.6 | 0.00 | 0.00 | 0.00 | 88 | 1020.0 |
| 20260507130657 | 53 | 11 | 1.7 | 3.5 | 0.00 | 0.00 | 0.00 | 88 | 1020.0 |
| 20260507130158 | 53 | 12 | 1.7 | 2.6 | 0.00 | 0.00 | 0.00 | 89 | 1020.0 |
| 20260507125656 | 53 | 9 | 1.7 | 3.5 | 0.00 | 0.00 | 0.00 | 89 | 1020.0 |
| 20260507125157 | 53 | 349 | 0.9 | 1.7 | 0.00 | 0.00 | 0.00 | 89 | 1020.0 |
| 20260507124657 | 53 | 352 | 0.9 | 1.7 | 0.00 | 0.00 | 0.00 | 89 | 1020.0 |
| 20260507124157 | 53 | 14 | 1.7 | 2.6 | 0.00 | 0.00 | 0.00 | 89 | 1020.0 |
| 20260507123656 | 53 | 1 | 0.9 | 1.7 | 0.00 | 0.00 | 0.00 | 89 | 1020.0 |
| 20260507123156 | 53 | 17 | 1.7 | 2.6 | 0.00 | 0.00 | 0.00 | 89 | 1020.0 |
| 20260507122657 | 53 | 1 | 1.7 | 1.7 | 0.00 | 0.00 | 0.00 | 89 | 1020.0 |
| 20260507122156 | 53 | 26 | 0.9 | 1.7 | 0.00 | 0.00 | 0.00 | 88 | 1020.0 |
| 20260507121656 | 53 | 13 | 1.7 | 1.7 | 0.00 | 0.00 | 0.00 | 88 | 1020.0 |
| 20260507121156 | 53 | 18 | 2.6 | 3.5 | 0.00 | 0.00 | 0.00 | 88 | 1020.0 |
| 20260507120658 | 53 | 22 | 3.5 | 4.3 | 0.00 | 0.00 | 0.00 | 88 | 1021.0 |
| 20260507120156 | 53 | 25 | 1.7 | 2.6 | 0.00 | 0.00 | 0.00 | 88 | 1021.0 |
| 20260507115656 | 53 | 10 | 3.5 | 4.3 | 0.00 | 0.00 | 0.00 | 87 | 1021.0 |
| 20260507115156 | 53 | 350 | 3.5 | 4.3 | 0.00 | 0.00 | 0.00 | 87 | 1020.0 |
| 20260507114656 | 53 | 9 | 2.6 | 2.6 | 0.00 | 0.00 | 0.00 | 88 | 1020.0 |
| 20260507114156 | 53 | 2 | 2.6 | 3.5 | 0.00 | 0.00 | 0.00 | 88 | 1020.0 |
| 20260507113656 | 53 | 0 | 1.7 | 1.7 | 0.00 | 0.00 | 0.00 | 88 | 1021.0 |
| 20260507113157 | 53 | 353 | 1.7 | 2.6 | 0.00 | 0.00 | 0.00 | 88 | 1021.0 |
| 20260507112656 | 53 | 5 | 3.5 | 3.5 | 0.00 | 0.00 | 0.00 | 88 | 1021.0 |
| 20260507112157 | 53 | 353 | 1.7 | 2.6 | 0.00 | 0.00 | 0.00 | 89 | 1021.0 |
| 20260507111656 | 53 | 348 | 1.7 | 1.7 | 0.00 | 0.00 | 0.00 | 88 | 1021.0 |
| 20260507111156 | 53 | 339 | 0.9 | 1.7 | 0.00 | 0.00 | 0.00 | 88 | 1021.0 |
| 20260507110657 | 53 | 331 | 0.9 | 1.7 | 0.00 | 0.00 | 0.00 | 88 | 1021.0 |
| 20260507110158 | 53 | 342 | 1.7 | 1.7 | 0.00 | 0.00 | 0.00 | 88 | 1021.0 |
| 20260507105659 | 53 | 348 | 0.9 | 1.7 | 0.00 | 0.00 | 0.00 | 87 | 1021.0 |
| 20260507105156 | 53 | 344 | 0.9 | 1.7 | 0.00 | 0.00 | 0.00 | 87 | 1021.0 |
| 20260507104656 | 53 | 332 | 0.9 | 1.7 | 0.00 | 0.00 | 0.00 | 87 | 1021.0 |
| 20260507104156 | 53 | 340 | 1.7 | 1.7 | 0.00 | 0.00 | 0.00 | 87 | 1021.0 |
| 20260507103656 | 53 | 338 | 0.9 | 1.7 | 0.00 | 0.00 | 0.00 | 87 | 1021.0 |
| 20260507103156 | 53 | 346 | 0.9 | 1.7 | 0.00 | 0.00 | 0.00 | 87 | 1021.0 |
| 20260507102656 | 53 | 350 | 0.9 | 1.7 | 0.00 | 0.00 | 0.00 | 87 | 1021.0 |
| 20260507102156 | 53 | 340 | 0.9 | 1.7 | 0.00 | 0.00 | 0.00 | 87 | 1021.0 |
| 20260507101657 | 53 | 329 | 0.9 | 1.7 | 0.00 | 0.00 | 0.00 | 86 | 1021.0 |
| 20260507101156 | 53 | 340 | 1.7 | 1.7 | 0.00 | 0.00 | 0.00 | 87 | 1021.0 |
| 20260507100656 | 53 | 348 | 1.7 | 1.7 | 0.00 | 0.00 | 0.00 | 87 | 1021.0 |
| 20260507100157 | 53 | 338 | 0.9 | 1.7 | 0.00 | 0.00 | 0.00 | 87 | 1021.0 |
| 20260507095656 | 53 | 332 | 1.7 | 1.7 | 0.00 | 0.00 | 0.00 | 86 | 1021.0 |
| 20260507095156 | 53 | 341 | 1.7 | 1.7 | 0.00 | 0.00 | 0.00 | 87 | 1021.0 |
| 20260507094656 | 53 | 340 | 0.9 | 1.7 | 0.00 | 0.00 | 0.00 | 87 | 1021.0 |
| 20260507094156 | 53 | 335 | 1.7 | 2.6 | 0.00 | 0.00 | 0.00 | 87 | 1021.0 |
| 20260507093657 | 53 | 319 | 1.7 | 2.6 | 0.00 | 0.00 | 0.00 | 87 | 1021.0 |
| 20260507093156 | 53 | 319 | 1.7 | 1.7 | 0.00 | 0.00 | 0.00 | 87 | 1021.0 |
| 20260507092656 | 53 | 319 | 1.7 | 1.7 | 0.00 | 0.00 | 0.00 | 87 | 1021.0 |
| 20260507092156 | 53 | 326 | 1.7 | 1.7 | 0.00 | 0.00 | 0.00 | 87 | 1021.0 |
| 20260507091657 | 53 | 331 | 1.7 | 1.7 | 0.00 | 0.00 | 0.00 | 87 | 1021.0 |
| 20260507091156 | 53 | 335 | 1.7 | 2.6 | 0.00 | 0.00 | 0.00 | 87 | 1021.0 |
| 20260507090656 | 53 | 334 | 0.9 | 1.7 | 0.00 | 0.00 | 0.00 | 88 | 1021.0 |
| 20260507090156 | 53 | 347 | 0.9 | 1.7 | 0.00 | 0.00 | 0.00 | 89 | 1021.0 |
| 20260507085656 | 53 | 348 | 0.9 | 1.7 | 0.00 | 0.00 | 0.00 | 89 | 1021.0 |
| 20260507085157 | 52 | 347 | 0.9 | 1.7 | 0.00 | 0.00 | 0.00 | 88 | 1021.0 |
| 20260507084656 | 52 | 341 | 1.7 | 1.7 | 0.00 | 0.00 | 0.00 | 88 | 1021.0 |
| 20260507084156 | 52 | 334 | 0.9 | 1.7 | 0.00 | 0.00 | 0.00 | 88 | 1021.0 |
| 20260507083656 | 52 | 340 | 1.7 | 1.7 | 0.00 | 0.00 | 0.00 | 88 | 1021.0 |
| 20260507083157 | 52 | 337 | 1.7 | 2.6 | 0.00 | 0.00 | 0.00 | 89 | 1021.0 |
| 20260507082656 | 52 | 324 | 0.9 | 2.6 | 0.00 | 0.00 | 0.00 | 89 | 1021.0 |
| 20260507082158 | 52 | 331 | 1.7 | 2.6 | 0.00 | 0.00 | 0.00 | 89 | 1021.0 |
| 20260507081656 | 52 | 341 | 1.7 | 1.7 | 0.00 | 0.00 | 0.00 | 89 | 1021.0 |
| 20260507081156 | 52 | 343 | 1.7 | 1.7 | 0.00 | 0.00 | 0.00 | 89 | 1021.0 |
| 20260507080656 | 52 | 338 | 0.0 | 1.7 | 0.00 | 0.00 | 0.00 | 89 | 1021.0 |
| 20260507080156 | 52 | 346 | 1.7 | 2.6 | 0.00 | 0.00 | 0.00 | 89 | 1021.0 |
| 20260507075656 | 52 | 336 | 0.9 | 1.7 | 0.00 | 0.00 | 0.00 | 88 | 1021.0 |
| 20260507075156 | 52 | 348 | 0.9 | 1.7 | 0.00 | 0.00 | 0.00 | 88 | 1021.0 |
| 20260507074656 | 52 | 337 | 0.9 | 1.7 | 0.00 | 0.00 | 0.00 | 88 | 1021.0 |
| 20260507074156 | 52 | 355 | 0.0 | 1.7 | 0.00 | 0.00 | 0.00 | 89 | 1021.0 |
| 20260507073658 | 52 | 337 | 0.9 | 1.7 | 0.00 | 0.00 | 0.00 | 88 | 1021.0 |
| 20260507073157 | 52 | 345 | 1.7 | 1.7 | 0.00 | 0.00 | 0.00 | 87 | 1021.0 |
| 20260507072656 | 52 | 304 | 0.9 | 1.7 | 0.00 | 0.00 | 0.00 | 87 | 1021.0 |
| 20260507072157 | 52 | 325 | 0.9 | 2.6 | 0.00 | 0.00 | 0.00 | 87 | 1021.0 |
| 20260507071656 | 52 | 339 | 0.9 | 1.7 | 0.00 | 0.00 | 0.00 | 86 | 1021.0 |
| 20260507071157 | 52 | 332 | 0.9 | 1.7 | 0.00 | 0.00 | 0.00 | 86 | 1021.0 |
| 20260507070659 | 52 | 328 | 0.9 | 1.7 | 0.00 | 0.00 | 0.00 | 86 | 1021.0 |
| 20260507070156 | 52 | 314 | 1.7 | 2.6 | 0.00 | 0.00 | 0.00 | 86 | 1021.0 |
| 20260507065657 | 52 | 332 | 1.7 | 1.7 | 0.00 | 0.00 | 0.00 | 86 | 1021.0 |
| 20260507065157 | 51 | 326 | 0.9 | 1.7 | 0.00 | 0.00 | 0.00 | 87 | 1021.0 |
| 20260507064656 | 51 | 327 | 0.9 | 1.7 | 0.00 | 0.00 | 0.00 | 87 | 1021.0 |
| 20260507064157 | 51 | 335 | 1.7 | 1.7 | 0.00 | 0.00 | 0.00 | 88 | 1021.0 |
| 20260507063656 | 51 | 334 | 1.7 | 1.7 | 0.00 | 0.00 | 0.00 | 88 | 1021.0 |
| 20260507063156 | 51 | 346 | 1.7 | 2.6 | 0.00 | 0.00 | 0.00 | 87 | 1021.0 |
| 20260507062657 | 51 | 338 | 0.9 | 1.7 | 0.00 | 0.00 | 0.00 | 87 | 1021.0 |
| 20260507062156 | 52 | 331 | 0.9 | 1.7 | 0.00 | 0.00 | 0.00 | 86 | 1021.0 |
| 20260507061657 | 52 | 324 | 1.7 | 1.7 | 0.00 | 0.00 | 0.00 | 85 | 1021.0 |
| 20260507061156 | 52 | 306 | 0.9 | 1.7 | 0.00 | 0.00 | 0.00 | 86 | 1021.0 |
| 20260507060656 | 52 | 315 | 0.9 | 1.7 | 0.00 | 0.00 | 0.00 | 85 | 1021.0 |
| 20260507060157 | 52 | 306 | 0.9 | 2.6 | 0.00 | 0.00 | 0.00 | 85 | 1021.0 |
| 20260507055656 | 52 | 328 | 3.5 | 6.1 | 0.00 | 0.00 | 0.00 | 86 | 1021.0 |
| 20260507055156 | 52 | 328 | 1.7 | 4.3 | 0.00 | 0.00 | 0.00 | 85 | 1021.0 |
| 20260507054656 | 52 | 304 | 1.7 | 2.6 | 0.00 | 0.00 | 0.00 | 85 | 1021.0 |
| 20260507054156 | 52 | 309 | 0.9 | 1.7 | 0.00 | 0.00 | 0.00 | 85 | 1021.0 |
| 20260507053658 | 52 | 325 | 1.7 | 1.7 | 0.00 | 0.00 | 0.00 | 85 | 1021.0 |
| 20260507053157 | 52 | 333 | 2.6 | 3.5 | 0.00 | 0.00 | 0.00 | 85 | 1021.0 |
| 20260507052656 | 52 | 321 | 1.7 | 3.5 | 0.00 | 0.00 | 0.00 | 85 | 1021.0 |
| 20260507052156 | 53 | 324 | 0.9 | 1.7 | 0.00 | 0.00 | 0.00 | 85 | 1021.0 |
| 20260507051657 | 53 | 313 | 1.7 | 3.5 | 0.00 | 0.00 | 0.00 | 85 | 1021.0 |
| 20260507051156 | 53 | 324 | 0.9 | 2.6 | 0.00 | 0.00 | 0.00 | 85 | 1021.0 |
| 20260507050657 | 53 | 321 | 0.9 | 1.7 | 0.00 | 0.00 | 0.00 | 85 | 1021.0 |
| 20260507050156 | 53 | 323 | 0.9 | 1.7 | 0.00 | 0.00 | 0.00 | 85 | 1021.0 |
| 20260507045656 | 53 | 306 | 1.7 | 3.5 | 0.00 | 0.00 | 0.00 | 85 | 1021.0 |
| 20260507045156 | 53 | 332 | 1.7 | 3.5 | 0.00 | 0.00 | 0.00 | 85 | 1021.0 |
| 20260507044656 | 53 | 311 | 0.9 | 2.6 | 0.00 | 0.00 | 0.00 | 84 | 1021.0 |
| 20260507044156 | 53 | 291 | 1.7 | 3.5 | 0.00 | 0.00 | 0.00 | 84 | 1021.0 |
| 20260507043657 | 53 | 290 | 0.9 | 1.7 | 0.00 | 0.00 | 0.00 | 84 | 1021.0 |
| 20260507043157 | 53 | 315 | 0.9 | 2.6 | 0.00 | 0.00 | 0.00 | 84 | 1021.0 |
| 20260507042658 | 53 | 318 | 0.9 | 1.7 | 0.00 | 0.00 | 0.00 | 84 | 1021.0 |
| 20260507042156 | 53 | 312 | 0.9 | 1.7 | 0.00 | 0.00 | 0.00 | 84 | 1021.0 |
| 20260507041656 | 53 | 319 | 0.9 | 2.6 | 0.00 | 0.00 | 0.00 | 84 | 1021.0 |
| 20260507041157 | 53 | 312 | 0.9 | 2.6 | 0.00 | 0.00 | 0.00 | 84 | 1021.0 |
| 20260507040403 | 53 | 314 | 0.9 | 1.7 | 0.00 | 0.00 | 0.00 | 84 | 1021.0 |
| 20260507035656 | 53 | 297 | 1.7 | 5.2 | 0.00 | 0.00 | 0.00 | 84 | 1021.0 |
| 20260507035156 | 54 | 304 | 1.7 | 3.5 | 0.00 | 0.00 | 0.00 | 84 | 1021.0 |
| 20260507034657 | 54 | 315 | 1.7 | 2.6 | 0.00 | 0.00 | 0.00 | 83 | 1021.0 |
| 20260507034156 | 54 | 301 | 0.9 | 1.7 | 0.00 | 0.00 | 0.00 | 84 | 1020.0 |
| 20260507033657 | 54 | 299 | 0.9 | 1.7 | 0.00 | 0.00 | 0.00 | 83 | 1020.0 |
| 20260507033157 | 54 | 317 | 0.9 | 2.6 | 0.00 | 0.00 | 0.00 | 84 | 1020.0 |
| 20260507032656 | 54 | 308 | 0.9 | 1.7 | 0.00 | 0.00 | 0.00 | 83 | 1020.0 |
| 20260507032156 | 54 | 311 | 0.9 | 2.6 | 0.00 | 0.00 | 0.00 | 83 | 1020.0 |
| 20260507031657 | 55 | 326 | 1.7 | 2.6 | 0.00 | 0.00 | 0.00 | 83 | 1020.0 |
| 20260507031157 | 55 | 335 | 0.9 | 1.7 | 0.00 | 0.00 | 0.00 | 82 | 1020.0 |
| 20260507030656 | 55 | 309 | 1.7 | 4.3 | 0.00 | 0.00 | 0.00 | 82 | 1020.0 |
| 20260507030157 | 55 | 340 | 1.7 | 4.3 | 0.00 | 0.00 | 0.00 | 82 | 1020.0 |
| 20260507025656 | 55 | 306 | 0.9 | 1.7 | 0.00 | 0.00 | 0.00 | 81 | 1020.0 |
| 20260507025157 | 56 | 286 | 0.9 | 1.7 | 0.00 | 0.00 | 0.00 | 81 | 1020.0 |
| 20260507024656 | 56 | 281 | 1.7 | 5.2 | 0.00 | 0.00 | 0.00 | 80 | 1020.0 |